createdAt,value
2022-10-17T00:00:47.658Z,3.90
2022-10-17T00:03:17.711Z,4.65
2022-10-17T00:05:48.667Z,4.30
2022-10-17T00:08:19.177Z,4.32
2022-10-17T00:10:58.374Z,4.30
2022-10-17T00:13:28.535Z,4.35
2022-10-17T00:15:59.322Z,4.03
2022-10-17T00:18:29.160Z,4.60
2022-10-17T00:20:59.085Z,4.43
2022-10-17T00:23:29.831Z,4.68
2022-10-17T00:26:01.215Z,4.47
2022-10-17T00:28:31.190Z,4.82
2022-10-17T00:31:06.148Z,4.60
2022-10-17T00:33:36.657Z,4.90
2022-10-17T00:36:09.669Z,5.05
2022-10-17T00:38:39.670Z,4.93
2022-10-17T00:41:10.308Z,5.18
2022-10-17T00:43:53.454Z,5.30
2022-10-17T00:46:24.006Z,5.60
2022-10-17T00:48:55.176Z,5.07
2022-10-17T00:51:34.094Z,5.35
2022-10-17T00:54:04.064Z,5.22
2022-10-17T00:56:34.142Z,6.20
2022-10-17T01:01:42.283Z,5.90
2022-10-17T01:04:12.282Z,5.25
2022-10-17T01:06:42.400Z,5.53
2022-10-17T01:09:12.472Z,5.47
2022-10-17T01:11:47.048Z,16.98
2022-10-17T01:14:56.125Z,23.23
2022-10-17T01:17:32.282Z,11.32
2022-10-17T01:20:30.988Z,12.63
2022-10-17T01:23:07.077Z,14.13
2022-10-17T01:25:46.508Z,14.13
2022-10-17T01:31:19.583Z,12.15
2022-10-17T01:34:14.616Z,11.82
2022-10-17T01:37:06.838Z,12.30
2022-10-17T01:39:50.474Z,11.82
2022-10-17T01:42:49.260Z,11.80
2022-10-17T01:45:27.011Z,11.13
2022-10-17T01:47:57.258Z,10.13
2022-10-17T01:50:32.621Z,11.20
2022-10-17T01:53:16.054Z,10.88
2022-10-17T01:55:47.177Z,11.05
2022-10-17T01:58:39.336Z,10.07
2022-10-17T02:01:09.732Z,10.10
2022-10-17T02:03:40.381Z,10.70
2022-10-17T02:06:10.246Z,9.73
2022-10-17T02:08:47.770Z,9.48
2022-10-17T02:11:25.527Z,9.40
2022-10-17T02:14:40.118Z,9.85
2022-10-17T02:17:34.330Z,9.30
2022-10-17T02:20:29.949Z,9.10
2022-10-17T02:23:15.293Z,9.07
2022-10-17T02:26:11.431Z,9.18
2022-10-17T02:28:46.563Z,9.07
2022-10-17T02:31:24.253Z,8.30
2022-10-17T02:33:58.491Z,8.70
2022-10-17T02:36:32.419Z,8.10
2022-10-17T02:39:03.560Z,8.10
2022-10-17T02:41:33.825Z,8.10
2022-10-17T02:44:03.932Z,8.02
2022-10-17T02:46:34.397Z,7.47
2022-10-17T02:49:29.688Z,7.38
2022-10-17T02:52:12.862Z,7.68
2022-10-17T02:55:00.077Z,7.63
2022-10-17T02:57:54.462Z,7.28
2022-10-17T03:00:24.517Z,7.28
2022-10-17T03:02:55.138Z,7.80
2022-10-17T03:05:26.872Z,6.90
2022-10-17T03:07:57.164Z,6.63
2022-10-17T03:10:27.836Z,7.13
2022-10-17T03:12:57.871Z,7.20
2022-10-17T03:15:28.439Z,7.43
2022-10-17T03:17:58.348Z,6.97
2022-10-17T03:20:28.281Z,6.60
2022-10-17T03:22:58.173Z,6.72
2022-10-17T03:25:28.505Z,7.38
2022-10-17T03:28:01.502Z,6.32
2022-10-17T03:30:31.601Z,6.45
2022-10-17T03:33:01.784Z,6.70
2022-10-17T03:35:31.792Z,6.65
2022-10-17T03:38:02.337Z,6.45
2022-10-17T03:40:33.236Z,6.70
2022-10-17T03:43:03.725Z,6.63
2022-10-17T03:45:33.646Z,6.90
2022-10-17T03:48:04.484Z,7.22
2022-10-17T03:50:34.447Z,6.53
2022-10-17T03:53:05.404Z,6.80
2022-10-17T03:55:38.105Z,7.05
2022-10-17T03:58:08.156Z,6.95
2022-10-17T04:00:38.618Z,7.53
2022-10-17T04:03:08.525Z,7.85
2022-10-17T04:05:39.711Z,9.23
2022-10-17T04:08:09.807Z,9.43
2022-10-17T04:11:02.370Z,10.45
2022-10-17T04:13:33.085Z,11.68
2022-10-17T04:16:04.631Z,10.73
2022-10-17T04:18:35.250Z,11.00
2022-10-17T04:21:06.912Z,10.40
2022-10-17T04:23:37.139Z,10.85
2022-10-17T04:26:16.901Z,10.77
2022-10-17T04:28:47.091Z,10.85
2022-10-17T04:31:18.202Z,10.38
2022-10-17T04:34:20.797Z,10.98
2022-10-17T04:36:52.939Z,11.00
2022-10-17T04:39:22.927Z,11.05
2022-10-17T04:41:53.126Z,11.15
2022-10-17T04:44:23.210Z,9.98
2022-10-17T04:46:55.389Z,10.65
2022-10-17T04:49:25.699Z,10.23
2022-10-17T04:52:01.270Z,9.45
2022-10-17T04:54:40.539Z,10.10
2022-10-17T04:57:12.718Z,8.60
2022-10-17T04:59:46.376Z,8.93
2022-10-17T05:02:26.176Z,8.45
2022-10-17T05:04:56.299Z,8.25
2022-10-17T05:07:26.752Z,8.48
2022-10-17T05:10:03.394Z,8.70
2022-10-17T05:12:34.763Z,8.20
2022-10-17T05:15:04.954Z,8.65
2022-10-17T05:17:35.901Z,7.40
2022-10-17T05:20:06.308Z,7.78
2022-10-17T05:22:39.765Z,8.65
2022-10-17T05:25:13.034Z,7.53
2022-10-17T05:27:43.153Z,7.15
2022-10-17T05:30:13.391Z,7.35
2022-10-17T05:32:43.956Z,7.22
2022-10-17T05:35:13.849Z,6.85
2022-10-17T05:37:44.315Z,7.20
2022-10-17T05:40:14.646Z,7.55
2022-10-17T05:42:52.033Z,7.32
2022-10-17T05:45:24.913Z,7.30
2022-10-17T05:47:55.118Z,7.35
2022-10-17T05:50:26.388Z,7.72
2022-10-17T05:53:06.177Z,7.40
2022-10-17T05:55:42.083Z,7.25
2022-10-17T05:58:21.729Z,6.47
2022-10-17T06:01:10.652Z,7.10
2022-10-17T06:03:42.716Z,6.63
2022-10-17T06:06:13.892Z,7.57
2022-10-17T06:08:46.344Z,7.53
2022-10-17T06:11:20.669Z,7.53
2022-10-17T06:13:50.610Z,7.40
2022-10-17T06:16:26.546Z,7.38
2022-10-17T06:18:57.287Z,7.45
2022-10-17T06:21:28.043Z,7.35
2022-10-17T06:24:09.799Z,7.55
2022-10-17T06:26:42.958Z,7.63
2022-10-17T06:29:16.168Z,7.70
2022-10-17T06:31:50.322Z,6.70
2022-10-17T06:34:22.225Z,7.38
2022-10-17T06:36:52.773Z,6.75
2022-10-17T06:39:23.341Z,6.55
2022-10-17T06:42:01.951Z,6.65
2022-10-17T06:45:00.931Z,6.45
2022-10-17T06:47:46.184Z,6.70
2022-10-17T06:50:42.185Z,7.10
2022-10-17T06:53:32.151Z,6.25
2022-10-17T06:56:20.576Z,6.88
2022-10-17T06:59:04.718Z,6.55
2022-10-17T07:01:40.698Z,6.78
2022-10-17T07:04:14.544Z,5.70
2022-10-17T07:06:45.073Z,5.47
2022-10-17T07:09:21.164Z,5.20
2022-10-17T07:11:51.126Z,5.18
2022-10-17T07:14:22.635Z,5.00
2022-10-17T07:16:53.397Z,5.10
2022-10-17T07:19:26.852Z,4.55
2022-10-17T07:21:56.804Z,4.45
2022-10-17T07:24:27.101Z,4.40
2022-10-17T07:27:05.286Z,4.63
2022-10-17T07:29:35.540Z,4.80
2022-10-17T07:32:21.206Z,5.10
2022-10-17T07:34:51.176Z,4.22
2022-10-17T07:37:21.398Z,4.82
2022-10-17T07:39:57.778Z,5.35
2022-10-17T07:42:29.695Z,4.35
2022-10-17T07:45:00.512Z,4.40
2022-10-17T07:47:32.719Z,5.15
2022-10-17T07:50:04.881Z,4.07
2022-10-17T07:52:35.112Z,3.80
2022-10-17T07:55:05.207Z,4.70
2022-10-17T07:57:35.848Z,3.95
2022-10-17T08:00:06.664Z,4.18
2022-10-17T08:02:42.476Z,4.40
2022-10-17T08:05:12.478Z,3.90
2022-10-17T08:07:43.134Z,4.38
2022-10-17T08:10:14.677Z,3.80
2022-10-17T08:12:45.387Z,4.55
2022-10-17T08:15:15.502Z,3.75
2022-10-17T08:17:46.555Z,4.10
2022-10-17T08:20:16.724Z,4.22
2022-10-17T08:23:08.181Z,3.95
2022-10-17T08:25:42.678Z,3.92
2022-10-17T08:28:12.673Z,4.50
2022-10-17T08:30:42.857Z,4.13
2022-10-17T08:33:13.614Z,3.95
2022-10-17T08:35:44.318Z,4.50
2022-10-17T08:38:15.277Z,3.92
2022-10-17T08:40:47.140Z,3.80
2022-10-17T08:43:33.286Z,4.03
2022-10-17T08:46:07.974Z,3.75
2022-10-17T08:48:46.284Z,3.90
2022-10-17T08:51:29.941Z,3.92
2022-10-17T08:54:13.871Z,3.95
2022-10-17T08:56:49.556Z,3.88
2022-10-17T08:59:31.281Z,3.85
2022-10-17T09:02:05.931Z,4.68
2022-10-17T09:05:04.599Z,3.90
2022-10-17T09:07:46.595Z,3.90
2022-10-17T09:10:39.620Z,3.90
2022-10-17T09:13:28.141Z,3.95
2022-10-17T09:16:16.598Z,4.07
2022-10-17T09:19:00.277Z,4.32
2022-10-17T09:24:09.509Z,5.65
2022-10-17T09:26:41.147Z,4.85
2022-10-17T09:29:43.690Z,5.20
2022-10-17T09:32:25.645Z,4.28
2022-10-17T09:34:55.920Z,4.80
2022-10-17T09:37:31.384Z,5.53
2022-10-17T09:40:01.389Z,3.90
2022-10-17T09:42:31.625Z,3.90
2022-10-17T09:45:25.910Z,4.32
2022-10-17T09:50:34.809Z,5.28
2022-10-17T09:53:29.054Z,4.70
2022-10-17T09:56:00.999Z,5.15
2022-10-17T09:58:59.866Z,5.70
2022-10-17T10:01:32.198Z,6.38
2022-10-17T10:04:18.570Z,6.80
2022-10-17T10:07:05.852Z,5.40
2022-10-17T10:09:38.132Z,5.63
2022-10-17T10:12:18.043Z,5.28
2022-10-17T10:14:48.681Z,5.75
2022-10-17T10:17:43.035Z,5.68
2022-10-17T10:20:36.857Z,6.05
2022-10-17T10:23:26.814Z,5.07
2022-10-17T10:26:01.389Z,5.65
2022-10-17T10:28:37.104Z,5.45
2022-10-17T10:31:10.448Z,4.82
2022-10-17T10:33:47.016Z,4.93
2022-10-17T10:36:22.962Z,5.20
2022-10-17T10:41:23.623Z,4.78
2022-10-17T10:43:53.804Z,4.60
2022-10-17T10:46:24.745Z,4.47
2022-10-17T10:48:59.723Z,5.20
2022-10-17T10:51:34.370Z,4.70
2022-10-17T10:54:13.313Z,4.95
2022-10-17T10:56:51.153Z,4.60
2022-10-17T10:59:41.581Z,4.72
2022-10-17T11:02:20.205Z,4.43
2022-10-17T11:05:11.834Z,4.80
2022-10-17T11:08:07.837Z,4.55
2022-10-17T11:11:19.115Z,4.25
2022-10-17T11:14:04.636Z,4.38
2022-10-17T11:17:00.727Z,3.90
2022-10-17T11:19:42.725Z,5.05
2022-10-17T11:22:31.573Z,4.57
2022-10-17T11:25:05.874Z,4.47
2022-10-17T11:27:39.290Z,4.60
2022-10-17T11:30:11.018Z,4.78
2022-10-17T11:32:45.904Z,4.20
2022-10-17T11:35:21.257Z,4.88
2022-10-17T11:38:11.690Z,4.70
2022-10-17T11:40:43.311Z,4.50
2022-10-17T11:43:16.584Z,4.68
2022-10-17T11:48:33.424Z,5.03
2022-10-17T11:54:29.297Z,5.30
2022-10-17T11:57:28.568Z,5.60
2022-10-17T12:00:37.926Z,5.35
2022-10-17T12:03:22.770Z,5.35
2022-10-17T12:06:00.980Z,5.53
2022-10-17T12:08:48.760Z,5.85
2022-10-17T12:11:43.084Z,5.75
2022-10-17T12:14:41.437Z,5.60
2022-10-17T12:17:31.798Z,5.72
2022-10-17T12:20:26.476Z,6.00
2022-10-17T12:23:02.673Z,6.68
2022-10-17T12:25:34.955Z,6.65
2022-10-17T12:28:08.105Z,6.50
2022-10-17T12:30:40.719Z,6.90
2022-10-17T12:33:24.398Z,7.03
2022-10-17T12:38:45.750Z,7.28
2022-10-17T12:41:19.270Z,6.82
2022-10-17T12:43:58.130Z,7.57
2022-10-17T12:46:49.841Z,6.88
2022-10-17T12:49:42.059Z,7.10
2022-10-17T12:52:33.381Z,7.20
2022-10-17T12:55:34.323Z,8.23
2022-10-17T12:58:24.299Z,7.70
2022-10-17T13:01:23.817Z,8.55
2022-10-17T13:03:49.408Z,7.93
2022-10-17T13:06:24.615Z,8.07
2022-10-17T13:09:20.672Z,8.25
2022-10-17T13:11:50.837Z,8.20
2022-10-17T13:14:22.126Z,8.10
2022-10-17T13:17:00.404Z,8.43
2022-10-17T13:19:44.107Z,9.02
2022-10-17T13:22:19.865Z,9.25
2022-10-17T13:24:50.711Z,8.23
2022-10-17T13:27:30.450Z,9.35
2022-10-17T13:30:02.906Z,8.55
2022-10-17T13:32:40.780Z,9.43
2022-10-17T13:35:11.147Z,9.68
2022-10-17T13:37:46.709Z,9.45
2022-10-17T13:40:40.789Z,9.65
2022-10-17T13:43:19.441Z,9.52
2022-10-17T13:46:02.212Z,10.07
2022-10-17T13:48:38.344Z,10.10
2022-10-17T13:51:11.161Z,9.52
2022-10-17T13:53:43.716Z,10.43
2022-10-17T13:56:30.854Z,10.47
2022-10-17T13:59:03.253Z,9.52
2022-10-17T14:01:33.864Z,10.13
2022-10-17T14:04:14.114Z,10.88
2022-10-17T14:06:52.120Z,10.38
2022-10-17T14:09:30.994Z,10.88
2022-10-17T14:12:17.746Z,10.02
2022-10-17T14:15:09.712Z,10.02
2022-10-17T14:17:41.216Z,10.10
2022-10-17T14:23:32.141Z,11.40
2022-10-17T14:26:19.453Z,11.45
2022-10-17T14:29:09.300Z,10.77
2022-10-17T14:31:39.348Z,11.38
2022-10-17T14:34:39.576Z,10.95
2022-10-17T14:37:25.729Z,11.20
2022-10-17T14:39:58.368Z,10.70
2022-10-17T14:42:28.405Z,11.20
2022-10-17T14:45:05.042Z,11.38
2022-10-17T14:47:50.515Z,12.07
2022-10-17T14:50:28.707Z,11.05
2022-10-17T14:53:28.758Z,11.27
2022-10-17T14:56:00.474Z,10.95
2022-10-17T14:58:34.496Z,12.13
2022-10-17T15:01:04.435Z,10.98
2022-10-17T15:03:34.436Z,11.93
2022-10-17T15:06:17.300Z,11.50
2022-10-17T15:08:48.322Z,11.90
2022-10-17T15:11:18.771Z,11.00
2022-10-17T15:13:48.839Z,11.27
2022-10-17T15:16:34.284Z,12.20
2022-10-17T15:19:04.754Z,11.88
2022-10-17T15:21:39.592Z,11.00
2022-10-17T15:24:13.874Z,11.27
2022-10-17T15:26:44.235Z,12.05
2022-10-17T15:29:17.657Z,11.25
2022-10-17T15:34:17.682Z,12.30
2022-10-17T15:36:52.505Z,10.93
2022-10-17T15:39:22.387Z,11.50
2022-10-17T15:41:52.511Z,13.15
2022-10-17T15:44:22.492Z,12.63
2022-10-17T15:46:52.762Z,12.25
2022-10-17T15:49:22.700Z,12.65
2022-10-17T15:51:55.095Z,13.85
2022-10-17T15:54:25.306Z,14.25
2022-10-17T15:56:56.148Z,14.15
2022-10-17T15:59:35.514Z,14.20
2022-10-17T16:02:05.566Z,13.50
2022-10-17T16:04:35.441Z,14.50
2022-10-17T16:07:05.381Z,13.88
2022-10-17T16:09:36.146Z,13.95
2022-10-17T16:12:09.103Z,13.30
2022-10-17T16:14:48.229Z,14.35
2022-10-17T16:17:19.407Z,14.50
2022-10-17T16:19:49.729Z,14.95
2022-10-17T16:22:23.061Z,14.05
2022-10-17T16:24:59.460Z,14.65
2022-10-17T16:27:29.342Z,14.02
2022-10-17T16:29:59.257Z,14.50
2022-10-17T16:32:29.419Z,15.73
2022-10-17T16:35:01.112Z,15.80
2022-10-17T16:37:31.083Z,15.50
2022-10-17T16:40:01.774Z,14.90
2022-10-17T16:42:31.820Z,15.13
2022-10-17T16:45:02.068Z,15.20
2022-10-17T16:47:32.130Z,14.43
2022-10-17T16:50:02.159Z,14.05
2022-10-17T16:52:32.355Z,15.40
2022-10-17T16:55:02.737Z,16.83
2022-10-17T16:57:32.670Z,15.75
2022-10-17T17:00:02.602Z,14.10
2022-10-17T17:02:32.782Z,15.00
2022-10-17T17:05:03.027Z,14.23
2022-10-17T17:07:33.245Z,16.05
2022-10-17T17:10:03.416Z,13.77
2022-10-17T17:12:37.233Z,15.50
2022-10-17T17:15:07.475Z,15.35
2022-10-17T17:17:49.668Z,15.02
2022-10-17T17:20:22.267Z,13.65
2022-10-17T17:22:53.423Z,14.00
2022-10-17T17:25:24.274Z,14.80
2022-10-17T17:27:54.137Z,14.40
2022-10-17T17:30:25.510Z,14.48
2022-10-17T17:32:55.532Z,14.93
2022-10-17T17:35:25.619Z,15.20
2022-10-17T17:37:55.560Z,15.38
2022-10-17T17:40:51.757Z,15.00
2022-10-17T17:43:21.614Z,14.13
2022-10-17T17:45:51.609Z,14.68
2022-10-17T17:48:21.544Z,14.98
2022-10-17T17:50:51.486Z,14.27
2022-10-17T17:53:21.431Z,14.38
2022-10-17T17:56:01.844Z,14.07
2022-10-17T17:58:32.022Z,13.98
2022-10-17T18:01:02.075Z,14.63
2022-10-17T18:03:32.028Z,14.48
2022-10-17T18:06:01.901Z,15.07
2022-10-17T18:08:31.792Z,14.07
2022-10-17T18:11:01.825Z,15.07
2022-10-17T18:13:31.848Z,14.00
2022-10-17T18:16:02.464Z,14.18
2022-10-17T18:18:32.441Z,14.25
2022-10-17T18:21:03.528Z,13.57
2022-10-17T18:23:33.485Z,13.77
2022-10-17T18:26:03.480Z,15.25
2022-10-17T18:28:36.541Z,14.40
2022-10-17T18:31:20.619Z,15.00
2022-10-17T18:33:52.316Z,14.50
2022-10-17T18:36:22.321Z,14.95
2022-10-17T18:38:52.246Z,13.95
2022-10-17T18:41:23.683Z,14.50
2022-10-17T18:43:53.972Z,14.18
2022-10-17T18:46:28.802Z,13.85
2022-10-17T18:48:58.741Z,14.45
2022-10-17T18:51:28.826Z,14.45
2022-10-17T18:53:59.808Z,14.80
2022-10-17T18:56:29.728Z,14.88
2022-10-17T18:58:59.682Z,14.30
2022-10-17T19:01:30.024Z,14.02
2022-10-17T19:04:00.774Z,13.70
2022-10-17T19:06:33.169Z,14.75
2022-10-17T19:09:04.794Z,14.05
2022-10-17T19:11:35.289Z,13.80
2022-10-17T19:14:09.335Z,14.30
2022-10-17T19:16:39.298Z,14.57
2022-10-17T19:19:27.985Z,14.13
2022-10-17T19:21:57.891Z,14.50
2022-10-17T19:24:28.794Z,13.75
2022-10-17T19:27:00.484Z,14.05
2022-10-17T19:29:32.900Z,14.02
2022-10-17T19:32:03.778Z,14.45
2022-10-17T19:34:33.741Z,14.00
2022-10-17T19:37:03.669Z,13.40
2022-10-17T19:39:34.237Z,13.32
2022-10-17T19:42:06.843Z,13.38
2022-10-17T19:44:38.008Z,14.10
2022-10-17T19:47:07.897Z,13.63
2022-10-17T19:49:37.984Z,13.63
2022-10-17T19:52:07.836Z,12.80
2022-10-17T19:54:40.036Z,13.85
2022-10-17T19:57:10.612Z,13.82
2022-10-17T19:59:40.630Z,13.30
2022-10-17T20:02:11.662Z,13.00
2022-10-17T20:04:49.708Z,13.20
2022-10-17T20:07:29.911Z,13.20
2022-10-17T20:09:59.783Z,13.13
2022-10-17T20:12:29.947Z,13.05
2022-10-17T20:15:00.430Z,13.70
2022-10-17T20:17:30.403Z,12.52
2022-10-17T20:20:02.345Z,13.45
2022-10-17T20:22:34.958Z,12.63
2022-10-17T20:25:04.906Z,12.52
2022-10-17T20:27:34.823Z,12.98
2022-10-17T20:30:11.323Z,12.45
2022-10-17T20:32:55.788Z,13.05
2022-10-17T20:35:25.787Z,12.63
2022-10-17T20:37:55.722Z,13.20
2022-10-17T20:40:40.737Z,12.77
2022-10-17T20:43:12.018Z,11.40
2022-10-17T20:45:51.476Z,13.02
2022-10-17T20:48:22.048Z,11.95
2022-10-17T20:50:55.124Z,12.13
2022-10-17T20:53:36.714Z,12.80
2022-10-17T20:56:11.227Z,12.80
2022-10-17T20:58:41.198Z,11.93
2022-10-17T21:01:12.569Z,12.50
2022-10-17T21:03:46.391Z,12.20
2022-10-17T21:06:17.158Z,12.65
2022-10-17T21:08:47.931Z,12.20
2022-10-17T21:11:23.500Z,11.75
2022-10-17T21:14:01.757Z,11.93
2022-10-17T21:16:33.494Z,11.25
2022-10-17T21:19:04.034Z,11.65
2022-10-17T21:21:38.594Z,11.43
2022-10-17T21:24:13.569Z,11.32
2022-10-17T21:26:44.762Z,12.13
2022-10-17T21:29:15.260Z,12.23
2022-10-17T21:31:46.585Z,11.40
2022-10-17T21:34:22.368Z,11.50
2022-10-17T21:36:52.549Z,10.95
2022-10-17T21:39:24.203Z,11.40
2022-10-17T21:41:55.023Z,10.93
2022-10-17T21:44:26.579Z,10.48
2022-10-17T21:46:56.926Z,10.65
2022-10-17T21:49:27.331Z,11.38
2022-10-17T21:51:58.468Z,10.90
2022-10-17T21:54:28.670Z,10.48
2022-10-17T21:56:58.738Z,11.43
2022-10-17T21:59:28.810Z,10.00
2022-10-17T22:01:59.338Z,10.25
2022-10-17T22:04:29.575Z,10.70
2022-10-17T22:06:59.437Z,10.77
2022-10-17T22:09:29.459Z,10.65
2022-10-17T22:11:59.435Z,9.63
2022-10-17T22:14:29.977Z,10.32
2022-10-17T22:17:00.193Z,10.18
2022-10-17T22:19:30.367Z,11.00
2022-10-17T22:22:00.875Z,9.30
2022-10-17T22:24:31.010Z,9.90
2022-10-17T22:27:01.933Z,9.60
2022-10-17T22:29:32.130Z,10.38
2022-10-17T22:32:02.583Z,9.68
2022-10-17T22:34:32.645Z,9.70
2022-10-17T22:37:05.453Z,10.07
2022-10-17T22:39:35.463Z,9.57
2022-10-17T22:42:05.800Z,9.75
2022-10-17T22:44:35.674Z,9.52
2022-10-17T22:47:05.643Z,10.07
2022-10-17T22:49:35.766Z,9.73
2022-10-17T22:52:05.816Z,9.80
2022-10-17T22:54:35.898Z,9.23
2022-10-17T22:57:05.838Z,9.48
2022-10-17T22:59:35.737Z,8.95
2022-10-17T23:02:05.598Z,9.45
2022-10-17T23:04:35.951Z,9.93
2022-10-17T23:07:12.394Z,9.10
2022-10-17T23:09:43.059Z,9.18
2022-10-17T23:12:13.499Z,9.30
2022-10-17T23:14:44.777Z,8.90
2022-10-17T23:17:15.340Z,8.05
2022-10-17T23:19:45.250Z,9.10
2022-10-17T23:22:15.206Z,8.82
2022-10-17T23:24:45.120Z,8.80
2022-10-17T23:27:15.113Z,8.10
2022-10-17T23:29:45.036Z,8.20
2022-10-17T23:32:14.998Z,9.25
2022-10-17T23:34:44.892Z,8.77
2022-10-17T23:37:14.856Z,8.55
2022-10-17T23:39:44.693Z,8.57
2022-10-17T23:42:14.550Z,8.82
2022-10-17T23:44:44.475Z,8.98
2022-10-17T23:47:14.320Z,7.90
2022-10-17T23:49:44.165Z,8.40
2022-10-17T23:52:14.001Z,7.47
2022-10-17T23:54:43.953Z,8.05
2022-10-17T23:57:13.852Z,7.90
2022-10-17T23:59:43.755Z,8.13
